Time,TemperatureF,DewpointF,PressureIn,WindDirection,WindDirectionDegrees,WindSpeedMPH,WindSpeedGustMPH,Humidity,HourlyPrecipIn,Conditions,Clouds,dailyrainin,SoftwareType,DateUTC
2013-04-19 00:08:00,78.1,56.8,30.03,North,-999,0.0,4.9,48,0.00,,,-99.99,FreeWX 2.05,2013-04-19 04:08:00,
2013-04-19 00:18:00,78.1,57.4,30.03,North,-999,0.0,0.0,49,0.00,,,-99.99,FreeWX 2.05,2013-04-19 04:18:00,
2013-04-19 00:28:00,77.9,57.7,30.03,North,-999,0.0,3.1,50,0.00,,,-99.99,FreeWX 2.05,2013-04-19 04:28:00,
2013-04-19 00:38:00,78.1,58.5,30.00,North,-999,0.0,3.1,51,0.00,,,-99.99,FreeWX 2.05,2013-04-19 04:38:00,
2013-04-19 00:48:00,78.1,58.5,30.03,North,-999,0.0,0.0,51,0.00,,,-99.99,FreeWX 2.05,2013-04-19 04:48:00,
2013-04-19 00:58:00,78.1,59.0,30.03,North,-999,0.0,4.5,52,0.00,,,-99.99,FreeWX 2.05,2013-04-19 04:58:00,
2013-04-19 01:08:00,78.1,59.5,30.03,North,-999,0.0,2.7,53,0.00,,,-99.99,FreeWX 2.05,2013-04-19 05:08:00,
2013-04-19 01:18:00,77.9,59.9,30.00,North,-999,0.0,2.7,54,0.00,,,-99.99,FreeWX 2.05,2013-04-19 05:18:00,
2013-04-19 01:28:00,77.9,60.4,30.00,North,-999,0.0,0.0,55,0.00,,,-99.99,FreeWX 2.05,2013-04-19 05:28:00,
2013-04-19 01:38:00,77.9,61.0,30.00,North,-999,0.0,3.1,56,0.00,,,-99.99,FreeWX 2.05,2013-04-19 05:38:00,
2013-04-19 01:48:00,77.9,62.4,30.00,North,-999,0.0,3.6,59,0.00,,,-99.99,FreeWX 2.05,2013-04-19 05:48:00,
2013-04-19 01:58:00,77.0,63.0,30.00,WSW,256,2.0,4.9,62,0.00,,,-99.99,FreeWX 2.05,2013-04-19 05:58:00,
2013-04-19 02:08:00,76.3,63.1,30.00,West,268,1.0,4.0,64,0.00,,,-99.99,FreeWX 2.05,2013-04-19 06:08:00,
2013-04-19 02:18:00,76.1,63.9,30.00,North,-999,0.0,3.1,66,0.00,,,-99.99,FreeWX 2.05,2013-04-19 06:18:00,
2013-04-19 02:28:00,75.7,64.0,30.00,North,-999,0.0,3.1,67,0.00,,,-99.99,FreeWX 2.05,2013-04-19 06:28:00,
2013-04-19 02:38:00,75.6,64.2,30.00,North,-999,0.0,0.0,68,0.00,,,-99.99,FreeWX 2.05,2013-04-19 06:38:00,
2013-04-19 02:48:00,75.6,64.2,30.00,North,-999,0.0,0.0,68,0.00,,,-99.99,FreeWX 2.05,2013-04-19 06:48:00,
2013-04-19 02:58:00,75.4,64.4,30.00,North,-999,0.0,2.7,69,0.00,,,-99.99,FreeWX 2.05,2013-04-19 06:58:00,
2013-04-19 03:08:00,75.2,64.8,30.00,North,-999,0.0,3.1,70,0.00,,,-99.99,FreeWX 2.05,2013-04-19 07:08:00,
2013-04-19 03:18:00,75.2,64.8,30.00,North,-999,0.0,0.0,70,0.00,,,-99.99,FreeWX 2.05,2013-04-19 07:18:00,
2013-04-19 03:28:00,75.0,64.9,30.00,North,-999,0.0,4.0,71,0.00,,,-99.99,FreeWX 2.05,2013-04-19 07:28:00,
2013-04-19 03:38:00,74.8,65.7,30.00,WSW,256,1.0,4.5,73,0.00,,,-99.99,FreeWX 2.05,2013-04-19 07:38:00,
2013-04-19 03:48:00,74.7,66.2,30.00,West,267,1.0,4.5,75,0.00,,,-99.99,FreeWX 2.05,2013-04-19 07:48:00,
2013-04-19 03:58:00,74.3,66.2,30.00,West,276,1.0,4.0,76,0.00,,,-99.99,FreeWX 2.05,2013-04-19 07:58:00,
2013-04-19 04:08:00,74.1,66.7,29.97,North,-999,0.0,4.0,78,0.00,,,-99.99,FreeWX 2.05,2013-04-19 08:08:00,
2013-04-19 04:18:00,73.9,66.6,29.97,North,-999,0.0,3.1,78,0.00,,,-99.99,FreeWX 2.05,2013-04-19 08:18:00,
2013-04-19 04:28:00,73.9,66.9,29.97,North,-999,0.0,4.0,79,0.00,,,-99.99,FreeWX 2.05,2013-04-19 08:28:00,
2013-04-19 04:38:00,73.8,66.7,29.97,North,-999,0.0,3.6,79,0.00,,,-99.99,FreeWX 2.05,2013-04-19 08:38:00,
2013-04-19 04:48:00,73.8,67.3,29.97,North,-999,0.0,3.6,80,0.00,,,-99.99,FreeWX 2.05,2013-04-19 08:48:00,
2013-04-19 04:58:00,73.6,67.1,29.97,North,-999,0.0,3.6,80,0.00,,,-99.99,FreeWX 2.05,2013-04-19 08:58:00,
2013-04-19 05:08:00,73.8,67.6,29.97,NW,315,1.0,5.8,81,0.00,,,-99.99,FreeWX 2.05,2013-04-19 09:08:00,
2013-04-19 05:18:00,73.8,67.8,29.97,WNW,283,2.0,5.4,82,0.00,,,-99.99,FreeWX 2.05,2013-04-19 09:18:00,
2013-04-19 05:28:00,73.9,68.0,29.97,WNW,298,1.0,4.5,82,0.00,,,-99.99,FreeWX 2.05,2013-04-19 09:28:00,
2013-04-19 05:38:00,73.9,68.0,29.97,WNW,298,2.0,5.4,82,0.00,,,-99.99,FreeWX 2.05,2013-04-19 09:38:00,
2013-04-19 05:48:00,73.9,68.0,29.97,West,281,2.0,4.5,82,0.00,,,-99.99,FreeWX 2.05,2013-04-19 09:48:00,
2013-04-19 05:58:00,73.9,68.0,29.97,NW,323,2.0,6.3,82,0.00,,,-99.99,FreeWX 2.05,2013-04-19 09:58:00,
2013-04-19 06:08:00,73.9,68.0,29.97,WNW,302,1.0,4.5,82,0.00,,,-99.99,FreeWX 2.05,2013-04-19 10:08:00,
2013-04-19 06:18:00,73.9,68.0,29.97,North,-999,0.0,3.6,82,0.00,,,-99.99,FreeWX 2.05,2013-04-19 10:18:00,
2013-04-19 06:28:00,73.9,68.0,29.97,West,272,1.0,4.0,82,0.00,,,-99.99,FreeWX 2.05,2013-04-19 10:28:00,
2013-04-19 06:38:00,73.9,68.0,30.00,NW,322,1.0,4.0,82,0.00,,,-99.99,FreeWX 2.05,2013-04-19 10:38:00,
2013-04-19 06:48:00,73.9,68.0,30.00,North,-999,0.0,4.0,82,0.00,,,-99.99,FreeWX 2.05,2013-04-19 10:48:00,
2013-04-19 06:58:00,73.9,68.0,30.00,North,-999,0.0,4.0,82,0.00,,,-99.99,FreeWX 2.05,2013-04-19 10:58:00,
2013-04-19 07:08:00,73.9,67.6,30.00,North,-999,0.0,3.1,81,0.00,,,-99.99,FreeWX 2.05,2013-04-19 11:08:00,
2013-04-19 07:18:00,73.8,67.6,30.00,West,260,1.0,4.5,81,0.00,,,-99.99,FreeWX 2.05,2013-04-19 11:18:00,
2013-04-19 07:28:00,73.9,67.6,30.00,West,280,1.0,3.6,81,0.00,,,-99.99,FreeWX 2.05,2013-04-19 11:28:00,
2013-04-19 07:38:00,73.9,67.6,30.00,West,281,1.0,4.5,81,0.00,,,-99.99,FreeWX 2.05,2013-04-19 11:38:00,
2013-04-19 07:48:00,74.1,67.8,30.00,WNW,289,1.0,4.5,81,0.00,,,-99.99,FreeWX 2.05,2013-04-19 11:48:00,
2013-04-19 07:58:00,74.5,68.2,30.00,West,263,2.0,4.9,81,0.00,,,-99.99,FreeWX 2.05,2013-04-19 11:58:00,
2013-04-19 08:08:00,75.2,69.3,30.00,WNW,299,2.0,5.4,82,0.00,,,-99.99,FreeWX 2.05,2013-04-19 12:08:00,
2013-04-19 08:18:00,75.6,69.3,30.00,NNW,327,1.0,6.3,81,0.00,,,-99.99,FreeWX 2.05,2013-04-19 12:18:00,
2013-04-19 08:28:00,76.3,70.0,30.00,NNW,327,2.0,5.4,81,0.00,,,-99.99,FreeWX 2.05,2013-04-19 12:28:00,
2013-04-19 08:38:00,77.0,70.7,30.00,North,352,2.0,5.4,81,0.00,,,-99.99,FreeWX 2.05,2013-04-19 12:38:00,
2013-04-19 08:48:00,76.8,69.8,30.00,NW,323,3.0,6.9,79,0.00,,,-99.99,FreeWX 2.05,2013-04-19 12:48:00,
2013-04-19 08:58:00,77.2,69.8,30.00,NNW,328,3.0,6.3,78,0.00,,,-99.99,FreeWX 2.05,2013-04-19 12:58:00,
2013-04-19 09:08:00,77.7,70.0,30.03,NW,325,3.0,6.3,77,0.00,,,-99.99,FreeWX 2.05,2013-04-19 13:08:00,
2013-04-19 09:18:00,78.3,69.6,30.03,NNW,327,2.0,6.3,75,0.00,,,-99.99,FreeWX 2.05,2013-04-19 13:18:00,
2013-04-19 09:28:00,78.6,69.3,30.03,NW,315,3.0,6.7,73,0.00,,,-99.99,FreeWX 2.05,2013-04-19 13:28:00,
2013-04-19 09:38:00,79.3,68.7,30.03,NNW,343,2.0,6.7,70,0.00,,,-99.99,FreeWX 2.05,2013-04-19 13:38:00,
2013-04-19 09:48:00,79.7,67.8,30.00,NNW,345,3.0,9.6,67,0.00,,,-99.99,FreeWX 2.05,2013-04-19 13:48:00,
2013-04-19 09:58:00,80.2,67.5,30.00,North,2,3.0,9.2,65,0.00,,,-99.99,FreeWX 2.05,2013-04-19 13:58:00,
2013-04-19 10:08:00,80.6,64.9,30.03,NNW,335,4.0,10.1,59,0.00,,,-99.99,FreeWX 2.05,2013-04-19 14:08:00,
2013-04-19 10:18:00,81.5,65.3,30.03,NNW,344,3.0,7.4,58,0.00,,,-99.99,FreeWX 2.05,2013-04-19 14:18:00,
2013-04-19 10:28:00,81.7,63.3,30.03,North,358,5.0,13.0,54,0.00,,,-99.99,FreeWX 2.05,2013-04-19 14:28:00,
2013-04-19 10:38:00,81.9,61.9,30.03,NNE,15,5.0,12.1,51,0.00,,,-99.99,FreeWX 2.05,2013-04-19 14:38:00,
2013-04-19 10:48:00,82.4,59.5,30.03,North,5,6.0,11.2,46,0.00,,,-99.99,FreeWX 2.05,2013-04-19 14:48:00,
2013-04-19 10:58:00,83.1,57.6,30.03,North,358,6.0,18.6,42,0.00,,,-99.99,FreeWX 2.05,2013-04-19 14:58:00,
2013-04-19 11:08:00,83.7,56.7,30.03,North,359,6.0,14.3,40,0.00,,,-99.99,FreeWX 2.05,2013-04-19 15:08:00,
2013-04-19 11:18:00,83.8,55.4,30.03,North,7,7.0,13.9,38,0.00,,,-99.99,FreeWX 2.05,2013-04-19 15:18:00,
2013-04-19 11:28:00,84.2,56.5,30.03,NNE,20,6.0,11.6,39,0.00,,,-99.99,FreeWX 2.05,2013-04-19 15:28:00,
2013-04-19 11:38:00,84.7,56.3,30.03,North,5,5.0,11.6,38,0.00,,,-99.99,FreeWX 2.05,2013-04-19 15:38:00,
2013-04-19 11:48:00,85.3,55.2,30.03,NNE,24,5.0,11.6,36,0.00,,,-99.99,FreeWX 2.05,2013-04-19 15:48:00,
2013-04-19 11:58:00,85.3,52.9,30.03,NNE,14,7.0,17.2,33,0.00,,,-99.99,FreeWX 2.05,2013-04-19 15:58:00,
2013-04-19 12:08:00,85.5,53.1,30.03,NNE,17,6.0,11.6,33,0.00,,,-99.99,FreeWX 2.05,2013-04-19 16:08:00,
2013-04-19 12:18:00,85.8,52.5,30.03,NNE,16,6.0,12.1,32,0.00,,,-99.99,FreeWX 2.05,2013-04-19 16:18:00,
2013-04-19 12:28:00,85.8,51.6,30.03,NNE,31,7.0,13.9,31,0.00,,,-99.99,FreeWX 2.05,2013-04-19 16:28:00,
2013-04-19 12:38:00,85.6,50.5,30.03,NNE,16,7.0,16.3,30,0.00,,,-99.99,FreeWX 2.05,2013-04-19 16:38:00,
2013-04-19 12:48:00,86.7,51.6,30.03,NNE,19,6.0,16.8,30,0.00,,,-99.99,FreeWX 2.05,2013-04-19 16:48:00,
2013-04-19 12:58:00,86.5,50.5,30.03,NNE,32,7.0,13.9,29,0.00,,,-99.99,FreeWX 2.05,2013-04-19 16:58:00,
2013-04-19 13:08:00,86.9,50.7,30.00,NNE,29,7.0,13.9,29,0.00,,,-99.99,FreeWX 2.05,2013-04-19 17:08:00,
2013-04-19 13:18:00,86.4,50.4,30.00,NNE,18,7.0,13.0,29,0.00,,,-99.99,FreeWX 2.05,2013-04-19 17:18:00,
2013-04-19 13:28:00,86.7,49.6,30.00,North,11,6.0,13.0,28,0.00,,,-99.99,FreeWX 2.05,2013-04-19 17:28:00,
2013-04-19 13:38:00,86.4,49.5,30.00,North,10,6.0,14.3,28,0.00,,,-99.99,FreeWX 2.05,2013-04-19 17:38:00,
2013-04-19 13:48:00,86.7,49.6,30.00,NNE,25,7.0,14.3,28,0.00,,,-99.99,FreeWX 2.05,2013-04-19 17:48:00,
2013-04-19 13:58:00,86.5,48.6,30.00,NNE,18,7.0,13.9,27,0.00,,,-99.99,FreeWX 2.05,2013-04-19 17:58:00,
2013-04-19 14:08:00,86.9,47.8,30.00,NNE,13,7.0,14.3,26,0.00,,,-99.99,FreeWX 2.05,2013-04-19 18:08:00,
2013-04-19 14:18:00,87.1,46.9,30.00,NNE,22,7.0,15.2,25,0.00,,,-99.99,FreeWX 2.05,2013-04-19 18:18:00,
2013-04-19 14:28:00,87.4,48.4,30.00,NNE,21,8.0,15.9,26,0.00,,,-99.99,FreeWX 2.05,2013-04-19 18:28:00,
2013-04-19 14:38:00,87.6,48.4,29.97,North,2,6.0,14.8,26,0.00,,,-99.99,FreeWX 2.05,2013-04-19 18:38:00,
2013-04-19 14:48:00,88.0,49.8,29.97,North,10,6.0,11.6,27,0.00,,,-99.99,FreeWX 2.05,2013-04-19 18:48:00,
2013-04-19 14:58:00,88.3,50.0,29.97,NNE,30,6.0,13.9,27,0.00,,,-99.99,FreeWX 2.05,2013-04-19 18:58:00,
2013-04-19 15:08:00,88.2,47.8,29.97,NNE,33,7.0,13.0,25,0.00,,,-99.99,FreeWX 2.05,2013-04-19 19:08:00,
2013-04-19 15:18:00,88.2,50.0,29.97,NNE,33,7.0,13.0,27,0.00,,,-99.99,FreeWX 2.05,2013-04-19 19:18:00,
2013-04-19 15:28:00,87.3,47.1,29.97,NNE,31,8.0,15.2,25,0.00,,,-99.99,FreeWX 2.05,2013-04-19 19:28:00,
2013-04-19 15:38:00,87.1,48.9,29.97,NE,35,8.0,14.8,27,0.00,,,-99.99,FreeWX 2.05,2013-04-19 19:38:00,
2013-04-19 15:48:00,86.2,49.3,29.97,NNE,20,7.0,14.3,28,0.00,,,-99.99,FreeWX 2.05,2013-04-19 19:48:00,
2013-04-19 15:58:00,86.7,49.6,29.97,NNE,20,8.0,14.8,28,0.00,,,-99.99,FreeWX 2.05,2013-04-19 19:58:00,
2013-04-19 16:08:00,87.1,50.0,29.97,NNE,28,8.0,13.0,28,0.00,,,-99.99,FreeWX 2.05,2013-04-19 20:08:00,
2013-04-19 16:18:00,87.4,50.4,29.97,NNE,24,7.0,15.2,28,0.00,,,-99.99,FreeWX 2.05,2013-04-19 20:18:00,
2013-04-19 16:28:00,87.1,50.0,29.97,NNE,32,7.0,13.4,28,0.00,,,-99.99,FreeWX 2.05,2013-04-19 20:28:00,
2013-04-19 16:38:00,86.4,50.4,29.94,NNE,27,7.0,13.4,29,0.00,,,-99.99,FreeWX 2.05,2013-04-19 20:38:00,
2013-04-19 16:48:00,87.1,50.0,29.97,NE,37,6.0,11.6,28,0.00,,,-99.99,FreeWX 2.05,2013-04-19 20:48:00,
2013-04-19 16:58:00,87.3,50.2,29.97,NNE,29,6.0,11.6,28,0.00,,,-99.99,FreeWX 2.05,2013-04-19 20:58:00,
2013-04-19 17:08:00,87.1,50.0,29.97,NNE,33,6.0,11.2,28,0.00,,,-99.99,FreeWX 2.05,2013-04-19 21:08:00,
2013-04-19 17:18:00,85.8,49.8,29.97,NNE,31,8.0,13.4,29,0.00,,,-99.99,FreeWX 2.05,2013-04-19 21:18:00,
2013-04-19 17:28:00,85.5,49.5,29.97,NNE,23,7.0,13.9,29,0.00,,,-99.99,FreeWX 2.05,2013-04-19 21:28:00,
2013-04-19 17:38:00,85.1,50.2,29.97,NNE,26,7.0,13.0,30,0.00,,,-99.99,FreeWX 2.05,2013-04-19 21:38:00,
2013-04-19 17:48:00,84.6,50.5,29.97,NNE,32,7.0,11.6,31,0.00,,,-99.99,FreeWX 2.05,2013-04-19 21:48:00,
2013-04-19 17:58:00,84.6,51.4,29.97,NE,35,6.0,11.2,32,0.00,,,-99.99,FreeWX 2.05,2013-04-19 21:58:00,
2013-04-19 18:08:00,84.0,50.2,29.97,NNE,32,7.0,12.5,31,0.00,,,-99.99,FreeWX 2.05,2013-04-19 22:08:00,
2013-04-19 18:18:00,83.5,49.6,29.97,NNE,31,7.0,13.0,31,0.00,,,-99.99,FreeWX 2.05,2013-04-19 22:18:00,
2013-04-19 18:28:00,82.9,50.9,29.97,NNE,28,7.0,11.6,33,0.00,,,-99.99,FreeWX 2.05,2013-04-19 22:28:00,
2013-04-19 18:38:00,82.6,51.3,29.97,NNE,30,7.0,13.0,34,0.00,,,-99.99,FreeWX 2.05,2013-04-19 22:38:00,
2013-04-19 18:48:00,82.4,52.0,29.97,NE,37,7.0,13.4,35,0.00,,,-99.99,FreeWX 2.05,2013-04-19 22:48:00,
2013-04-19 18:58:00,81.9,53.1,29.97,NNE,33,6.0,10.5,37,0.00,,,-99.99,FreeWX 2.05,2013-04-19 22:58:00,
2013-04-19 19:08:00,81.5,53.4,29.97,NE,38,6.0,11.2,38,0.00,,,-99.99,FreeWX 2.05,2013-04-19 23:08:00,
2013-04-19 19:18:00,81.3,54.0,29.97,NE,38,6.0,11.2,39,0.00,,,-99.99,FreeWX 2.05,2013-04-19 23:18:00,
2013-04-19 19:28:00,81.0,54.3,29.97,NE,34,5.0,11.2,40,0.00,,,-99.99,FreeWX 2.05,2013-04-19 23:28:00,
2013-04-19 19:38:00,80.4,55.2,29.97,NNE,30,5.0,11.0,42,0.00,,,-99.99,FreeWX 2.05,2013-04-19 23:38:00,
2013-04-19 19:48:00,80.1,54.9,29.97,NE,39,5.0,9.6,42,0.00,,,-99.99,FreeWX 2.05,2013-04-19 23:48:00,
2013-04-19 19:58:00,79.9,55.4,29.97,NE,34,4.0,8.7,43,0.00,,,-99.99,FreeWX 2.05,2013-04-19 23:58:00,
2013-04-19 20:08:00,79.5,55.6,29.97,NE,38,4.0,8.3,44,0.00,,,-99.99,FreeWX 2.05,2013-04-20 00:08:00,
2013-04-19 20:18:00,79.3,56.1,29.97,NE,41,4.0,9.6,45,0.00,,,-99.99,FreeWX 2.05,2013-04-20 00:18:00,
2013-04-19 20:28:00,79.2,56.7,29.97,NE,34,4.0,9.6,46,0.00,,,-99.99,FreeWX 2.05,2013-04-20 00:28:00,
2013-04-19 20:38:00,79.0,57.0,30.00,NE,37,3.0,8.3,47,0.00,,,-99.99,FreeWX 2.05,2013-04-20 00:38:00,
2013-04-19 20:48:00,78.6,57.9,30.00,NE,40,4.0,7.4,49,0.00,,,-99.99,FreeWX 2.05,2013-04-20 00:48:00,
2013-04-19 20:58:00,78.6,59.0,30.00,NE,38,4.0,8.7,51,0.00,,,-99.99,FreeWX 2.05,2013-04-20 00:58:00,
2013-04-19 21:08:00,78.4,59.9,30.00,NE,35,5.0,10.1,53,0.00,,,-99.99,FreeWX 2.05,2013-04-20 01:08:00,
2013-04-19 21:18:00,78.3,60.3,30.00,NNE,32,4.0,7.8,54,0.00,,,-99.99,FreeWX 2.05,2013-04-20 01:18:00,
2013-04-19 21:28:00,78.4,61.3,30.00,NE,34,4.0,9.2,56,0.00,,,-99.99,FreeWX 2.05,2013-04-20 01:28:00,
2013-04-19 21:38:00,78.3,62.2,30.00,NNE,30,4.0,9.2,58,0.00,,,-99.99,FreeWX 2.05,2013-04-20 01:38:00,
2013-04-19 21:48:00,78.1,63.0,30.00,NE,34,4.0,7.8,60,0.00,,,-99.99,FreeWX 2.05,2013-04-20 01:48:00,
2013-04-19 21:58:00,78.1,63.0,30.00,NNE,32,3.0,8.3,60,0.00,,,-99.99,FreeWX 2.05,2013-04-20 01:58:00,
2013-04-19 22:08:00,78.1,63.5,30.03,NE,41,4.0,7.8,61,0.00,,,-99.99,FreeWX 2.05,2013-04-20 02:08:00,
2013-04-19 22:18:00,77.9,63.9,30.03,NNE,26,4.0,8.3,62,0.00,,,-99.99,FreeWX 2.05,2013-04-20 02:18:00,
2013-04-19 22:28:00,77.7,64.6,30.03,NNE,33,5.0,10.1,64,0.00,,,-99.99,FreeWX 2.05,2013-04-20 02:28:00,
2013-04-19 22:39:00,77.5,64.8,30.00,NNE,30,4.0,8.7,65,0.00,,,-99.99,FreeWX 2.05,2013-04-20 02:39:00,
2013-04-19 22:49:00,77.7,65.5,30.00,NNE,30,4.0,8.3,66,0.00,,,-99.99,FreeWX 2.05,2013-04-20 02:49:00,
2013-04-19 22:59:00,77.5,65.3,30.00,NNE,33,4.0,8.7,66,0.00,,,-99.99,FreeWX 2.05,2013-04-20 02:59:00,
2013-04-19 23:09:00,77.5,65.7,30.03,NNE,29,4.0,9.2,67,0.00,,,-99.99,FreeWX 2.05,2013-04-20 03:09:00,
2013-04-19 23:19:00,77.7,65.8,30.03,NE,41,4.0,8.3,67,0.00,,,-99.99,FreeWX 2.05,2013-04-20 03:19:00,
2013-04-19 23:29:00,77.7,65.8,30.03,NE,45,4.0,8.3,67,0.00,,,-99.99,FreeWX 2.05,2013-04-20 03:29:00,
2013-04-19 23:39:00,77.7,65.8,30.03,NE,37,4.0,8.3,67,0.00,,,-99.99,FreeWX 2.05,2013-04-20 03:39:00,
2013-04-19 23:49:00,77.7,65.8,30.03,NE,46,4.0,7.8,67,0.00,,,-99.99,FreeWX 2.05,2013-04-20 03:49:00,
2013-04-19 23:59:00,77.7,66.4,30.03,NE,34,4.0,7.4,68,0.00,,,-99.99,FreeWX 2.05,2013-04-20 03:59:00,